createdAt,value
2023-03-23T16:01:53.187Z,96968.72
2023-03-23T16:06:54.489Z,96970.56
2023-03-23T16:11:55.961Z,96965.16
2023-03-23T16:16:57.692Z,96971.66
2023-03-23T16:21:59.240Z,96968.63
2023-03-23T16:27:00.592Z,96979.31
2023-03-23T16:32:01.959Z,96981.72
2023-03-23T16:37:03.281Z,96980.44
2023-03-23T16:42:04.595Z,96988.06
2023-03-23T16:47:06.014Z,96998.41
2023-03-23T16:52:07.246Z,96996.97
2023-03-23T16:57:08.726Z,96997.25
2023-03-23T17:02:10.283Z,96998.44
2023-03-23T17:07:11.478Z,96998.97
2023-03-23T17:12:12.732Z,97005.69
2023-03-23T17:17:16.965Z,97009.84
2023-03-23T17:22:18.171Z,97011.66
2023-03-23T17:27:21.946Z,97006.50
2023-03-23T17:32:26.517Z,97016.13
2023-03-23T17:37:27.752Z,97034.50
2023-03-23T17:42:29.003Z,97055.44
2023-03-23T17:47:30.542Z,97048.81
2023-03-23T17:52:31.894Z,97057.50
2023-03-23T17:57:33.500Z,97070.34
2023-03-23T18:02:34.956Z,97090.53
2023-03-23T18:07:36.274Z,97094.06
2023-03-23T18:12:37.521Z,97096.31
2023-03-23T18:17:38.786Z,97100.81
2023-03-23T18:22:40.178Z,97097.03
2023-03-23T18:27:41.476Z,97102.75
2023-03-23T18:32:42.847Z,97099.66
2023-03-23T18:37:44.199Z,97094.09
2023-03-23T18:42:46.518Z,97087.84
2023-03-23T18:47:48.763Z,97094.28
2023-03-23T18:58:36.580Z,97099.00
2023-03-23T19:04:06.668Z,97082.44
2023-03-23T19:09:09.028Z,97076.81
2023-03-23T19:14:10.356Z,97104.84
2023-03-23T19:19:11.652Z,97111.63
2023-03-23T19:24:12.896Z,97109.50
2023-03-23T19:34:19.384Z,97098.06
2023-03-23T19:39:20.660Z,97103.91
2023-03-23T19:44:21.917Z,97104.59
2023-03-23T19:49:23.192Z,97117.34
2023-03-23T19:54:24.495Z,97121.09
2023-03-23T19:59:25.769Z,97113.13
2023-03-23T20:04:27.232Z,97118.75
2023-03-23T20:09:30.190Z,97119.88
2023-03-23T20:14:32.560Z,97115.78
2023-03-23T20:24:38.360Z,97130.69
2023-03-23T20:29:39.714Z,97128.41
2023-03-23T20:34:41.155Z,97132.06
2023-03-23T20:39:42.755Z,97145.00
2023-03-23T20:44:44.108Z,97145.38
2023-03-23T20:49:53.078Z,97142.94
2023-03-23T20:54:55.074Z,97136.50
2023-03-23T20:59:56.484Z,97135.47
2023-03-23T21:04:58.243Z,97136.50
2023-03-23T21:09:59.535Z,97131.41
2023-03-23T21:15:01.002Z,97136.81
2023-03-23T21:20:07.732Z,97123.75
2023-03-23T21:25:10.078Z,97126.19
2023-03-23T21:30:11.360Z,97107.06
2023-03-23T21:35:12.644Z,97104.31
2023-03-23T21:40:14.064Z,97110.38
2023-03-23T21:45:20.961Z,97105.22
2023-03-23T21:50:24.333Z,97095.50
2023-03-23T21:55:29.570Z,97108.38
2023-03-23T22:00:30.806Z,97109.41
2023-03-23T22:05:32.068Z,97102.56
2023-03-23T22:10:33.366Z,97100.56
2023-03-23T22:15:34.619Z,97101.56
2023-03-23T22:20:35.907Z,97110.88
2023-03-23T22:25:37.360Z,97095.19
2023-03-23T22:30:39.599Z,97103.78
2023-03-23T22:35:40.894Z,97093.63
2023-03-23T22:40:42.597Z,97086.53
2023-03-23T22:45:43.939Z,97090.81
2023-03-23T22:50:46.139Z,97088.81
2023-03-23T22:55:47.594Z,97084.22
2023-03-23T23:00:49.572Z,97076.28
2023-03-23T23:05:53.957Z,97083.59
2023-03-23T23:10:56.008Z,97074.81
2023-03-23T23:15:58.161Z,97070.34
2023-03-23T23:20:59.679Z,97069.91
2023-03-23T23:26:01.436Z,97063.03
2023-03-23T23:31:02.837Z,97047.88
2023-03-23T23:36:04.250Z,97044.03
2023-03-23T23:41:05.912Z,97042.03
2023-03-23T23:46:07.256Z,97040.38
2023-03-23T23:51:08.555Z,97037.41
2023-03-23T23:56:09.834Z,97030.13
